sensor_id;sensor_type;location;lat;lon;timestamp;temperature;humidity
15983;DHT22;14442;50.196;8.096;2024-02-04T00:02:00;22.30;39.90
15983;DHT22;14442;50.196;8.096;2024-02-04T00:04:28;22.40;40.00
15983;DHT22;14442;50.196;8.096;2024-02-04T00:06:55;22.40;40.00
15983;DHT22;14442;50.196;8.096;2024-02-04T00:09:22;22.40;40.00
15983;DHT22;14442;50.196;8.096;2024-02-04T00:11:49;22.40;40.00
15983;DHT22;14442;50.196;8.096;2024-02-04T00:14:18;22.30;39.90
15983;DHT22;14442;50.196;8.096;2024-02-04T00:16:44;22.40;40.00
15983;DHT22;14442;50.196;8.096;2024-02-04T00:19:11;22.30;39.90
15983;DHT22;14442;50.196;8.096;2024-02-04T00:21:38;22.30;39.90
15983;DHT22;14442;50.196;8.096;2024-02-04T00:24:05;22.30;40.00
15983;DHT22;14442;50.196;8.096;2024-02-04T00:26:31;22.30;40.00
15983;DHT22;14442;50.196;8.096;2024-02-04T00:28:58;22.30;40.00
15983;DHT22;14442;50.196;8.096;2024-02-04T00:31:26;22.30;40.00
15983;DHT22;14442;50.196;8.096;2024-02-04T00:33:53;22.30;40.10
15983;DHT22;14442;50.196;8.096;2024-02-04T00:36:20;22.30;39.90
15983;DHT22;14442;50.196;8.096;2024-02-04T00:38:47;22.30;40.00
15983;DHT22;14442;50.196;8.096;2024-02-04T00:41:13;22.30;40.00
15983;DHT22;14442;50.196;8.096;2024-02-04T00:43:40;22.30;40.00
15983;DHT22;14442;50.196;8.096;2024-02-04T00:46:07;22.30;40.00
15983;DHT22;14442;50.196;8.096;2024-02-04T00:48:37;22.30;40.00
15983;DHT22;14442;50.196;8.096;2024-02-04T00:51:04;22.30;40.00
15983;DHT22;14442;50.196;8.096;2024-02-04T00:53:30;22.30;40.00
15983;DHT22;14442;50.196;8.096;2024-02-04T00:55:59;22.30;40.00
15983;DHT22;14442;50.196;8.096;2024-02-04T00:58:26;22.30;40.00
15983;DHT22;14442;50.196;8.096;2024-02-04T01:00:53;22.30;40.00
15983;DHT22;14442;50.196;8.096;2024-02-04T01:03:19;22.30;40.00
15983;DHT22;14442;50.196;8.096;2024-02-04T01:05:47;22.20;39.90
15983;DHT22;14442;50.196;8.096;2024-02-04T01:08:14;22.20;39.90
15983;DHT22;14442;50.196;8.096;2024-02-04T01:10:41;22.30;40.00
15983;DHT22;14442;50.196;8.096;2024-02-04T01:13:08;22.20;39.90
15983;DHT22;14442;50.196;8.096;2024-02-04T01:15:34;22.20;39.90
15983;DHT22;14442;50.196;8.096;2024-02-04T01:18:01;22.20;40.00
15983;DHT22;14442;50.196;8.096;2024-02-04T01:20:28;22.20;40.00
15983;DHT22;14442;50.196;8.096;2024-02-04T01:22:56;22.20;40.00
15983;DHT22;14442;50.196;8.096;2024-02-04T01:25:23;22.20;39.90
15983;DHT22;14442;50.196;8.096;2024-02-04T01:27:49;22.20;40.00
15983;DHT22;14442;50.196;8.096;2024-02-04T01:30:16;22.20;40.00
15983;DHT22;14442;50.196;8.096;2024-02-04T01:32:43;22.20;40.00
15983;DHT22;14442;50.196;8.096;2024-02-04T01:35:11;22.20;40.00
15983;DHT22;14442;50.196;8.096;2024-02-04T01:37:37;22.20;40.10
15983;DHT22;14442;50.196;8.096;2024-02-04T01:40:07;22.10;40.00
15983;DHT22;14442;50.196;8.096;2024-02-04T01:42:34;22.10;40.00
15983;DHT22;14442;50.196;8.096;2024-02-04T01:45:01;22.10;40.10
15983;DHT22;14442;50.196;8.096;2024-02-04T01:47:27;22.10;40.00
15983;DHT22;14442;50.196;8.096;2024-02-04T01:49:54;22.10;40.10
15983;DHT22;14442;50.196;8.096;2024-02-04T01:52:21;22.10;40.10
15983;DHT22;14442;50.196;8.096;2024-02-04T01:54:48;22.10;40.10
15983;DHT22;14442;50.196;8.096;2024-02-04T01:57:16;22.10;40.10
15983;DHT22;14442;50.196;8.096;2024-02-04T01:59:44;22.10;40.10
15983;DHT22;14442;50.196;8.096;2024-02-04T02:02:11;22.10;40.10
15983;DHT22;14442;50.196;8.096;2024-02-04T02:04:39;22.10;40.10
15983;DHT22;14442;50.196;8.096;2024-02-04T02:07:05;22.10;40.20
15983;DHT22;14442;50.196;8.096;2024-02-04T02:09:33;22.10;40.20
15983;DHT22;14442;50.196;8.096;2024-02-04T02:12:03;22.10;40.20
15983;DHT22;14442;50.196;8.096;2024-02-04T02:14:35;22.10;40.20
15983;DHT22;14442;50.196;8.096;2024-02-04T02:17:09;22.10;40.20
15983;DHT22;14442;50.196;8.096;2024-02-04T02:19:47;22.10;40.20
15983;DHT22;14442;50.196;8.096;2024-02-04T02:22:25;22.00;40.20
15983;DHT22;14442;50.196;8.096;2024-02-04T02:24:56;22.00;40.10
15983;DHT22;14442;50.196;8.096;2024-02-04T02:27:24;22.00;40.30
15983;DHT22;14442;50.196;8.096;2024-02-04T02:29:51;22.00;40.20
15983;DHT22;14442;50.196;8.096;2024-02-04T02:32:18;22.00;40.20
15983;DHT22;14442;50.196;8.096;2024-02-04T02:34:45;22.00;40.30
15983;DHT22;14442;50.196;8.096;2024-02-04T02:37:27;22.00;40.20
15983;DHT22;14442;50.196;8.096;2024-02-04T02:40:00;22.00;40.20
15983;DHT22;14442;50.196;8.096;2024-02-04T02:42:29;22.00;40.30
15983;DHT22;14442;50.196;8.096;2024-02-04T02:44:57;22.00;40.30
15983;DHT22;14442;50.196;8.096;2024-02-04T02:47:25;22.00;40.30
15983;DHT22;14442;50.196;8.096;2024-02-04T02:49:54;22.00;40.30
15983;DHT22;14442;50.196;8.096;2024-02-04T02:52:21;22.00;40.30
15983;DHT22;14442;50.196;8.096;2024-02-04T02:54:47;22.00;40.30
15983;DHT22;14442;50.196;8.096;2024-02-04T02:57:15;22.00;40.30
15983;DHT22;14442;50.196;8.096;2024-02-04T02:59:42;21.90;40.30
15983;DHT22;14442;50.196;8.096;2024-02-04T03:02:09;21.90;40.30
15983;DHT22;14442;50.196;8.096;2024-02-04T03:04:36;21.90;40.30
15983;DHT22;14442;50.196;8.096;2024-02-04T03:07:03;21.90;40.30
15983;DHT22;14442;50.196;8.096;2024-02-04T03:09:31;21.90;40.30
15983;DHT22;14442;50.196;8.096;2024-02-04T03:11:58;21.90;40.30
15983;DHT22;14442;50.196;8.096;2024-02-04T03:14:26;21.90;40.30
15983;DHT22;14442;50.196;8.096;2024-02-04T03:16:53;21.90;40.30
15983;DHT22;14442;50.196;8.096;2024-02-04T03:19:20;21.90;40.30
15983;DHT22;14442;50.196;8.096;2024-02-04T03:21:47;21.90;40.30
15983;DHT22;14442;50.196;8.096;2024-02-04T03:24:13;21.90;40.30
15983;DHT22;14442;50.196;8.096;2024-02-04T03:26:40;21.90;40.30
15983;DHT22;14442;50.196;8.096;2024-02-04T03:29:07;21.90;40.30
15983;DHT22;14442;50.196;8.096;2024-02-04T03:31:35;21.90;40.40
15983;DHT22;14442;50.196;8.096;2024-02-04T03:34:02;21.90;40.30
15983;DHT22;14442;50.196;8.096;2024-02-04T03:36:30;21.90;40.30
15983;DHT22;14442;50.196;8.096;2024-02-04T03:38:57;21.90;40.30
15983;DHT22;14442;50.196;8.096;2024-02-04T03:41:23;21.90;40.30
15983;DHT22;14442;50.196;8.096;2024-02-04T03:43:50;21.90;40.30
15983;DHT22;14442;50.196;8.096;2024-02-04T03:46:17;21.90;40.30
15983;DHT22;14442;50.196;8.096;2024-02-04T03:48:45;21.90;40.30
15983;DHT22;14442;50.196;8.096;2024-02-04T03:51:15;21.90;40.30
15983;DHT22;14442;50.196;8.096;2024-02-04T03:53:42;21.90;40.30
15983;DHT22;14442;50.196;8.096;2024-02-04T03:56:09;21.80;40.30
15983;DHT22;14442;50.196;8.096;2024-02-04T03:58:36;21.80;40.20
15983;DHT22;14442;50.196;8.096;2024-02-04T04:01:02;21.80;40.20
15983;DHT22;14442;50.196;8.096;2024-02-04T04:03:29;21.80;40.30
15983;DHT22;14442;50.196;8.096;2024-02-04T04:05:57;21.80;40.30
15983;DHT22;14442;50.196;8.096;2024-02-04T04:08:24;21.80;40.20
15983;DHT22;14442;50.196;8.096;2024-02-04T04:10:51;21.80;40.30
15983;DHT22;14442;50.196;8.096;2024-02-04T04:13:17;21.80;40.40
15983;DHT22;14442;50.196;8.096;2024-02-04T04:15:44;21.80;40.30
15983;DHT22;14442;50.196;8.096;2024-02-04T04:18:11;21.80;40.30
15983;DHT22;14442;50.196;8.096;2024-02-04T04:20:38;21.80;40.30
15983;DHT22;14442;50.196;8.096;2024-02-04T04:23:06;21.80;40.40
15983;DHT22;14442;50.196;8.096;2024-02-04T04:25:33;21.80;40.40
15983;DHT22;14442;50.196;8.096;2024-02-04T04:28:00;21.80;40.30
15983;DHT22;14442;50.196;8.096;2024-02-04T04:30:26;21.80;40.50
15983;DHT22;14442;50.196;8.096;2024-02-04T04:32:52;21.80;40.50
15983;DHT22;14442;50.196;8.096;2024-02-04T04:35:19;21.80;40.50
15983;DHT22;14442;50.196;8.096;2024-02-04T04:37:45;21.70;40.40
15983;DHT22;14442;50.196;8.096;2024-02-04T04:40:14;21.80;40.40
15983;DHT22;14442;50.196;8.096;2024-02-04T04:42:40;21.70;41.20
15983;DHT22;14442;50.196;8.096;2024-02-04T04:45:07;21.70;40.50
15983;DHT22;14442;50.196;8.096;2024-02-04T04:47:34;21.70;40.30
15983;DHT22;14442;50.196;8.096;2024-02-04T04:50:01;21.70;40.30
15983;DHT22;14442;50.196;8.096;2024-02-04T04:52:28;21.70;40.50
15983;DHT22;14442;50.196;8.096;2024-02-04T04:54:55;21.70;40.50
15983;DHT22;14442;50.196;8.096;2024-02-04T04:57:23;21.70;40.50
15983;DHT22;14442;50.196;8.096;2024-02-04T04:59:49;21.70;40.50
15983;DHT22;14442;50.196;8.096;2024-02-04T05:02:16;21.70;40.60
15983;DHT22;14442;50.196;8.096;2024-02-04T05:04:43;21.70;40.60
15983;DHT22;14442;50.196;8.096;2024-02-04T05:07:10;21.70;40.60
15983;DHT22;14442;50.196;8.096;2024-02-04T05:09:37;21.70;40.50
15983;DHT22;14442;50.196;8.096;2024-02-04T05:12:05;21.70;40.60
15983;DHT22;14442;50.196;8.096;2024-02-04T05:14:34;21.70;40.60
15983;DHT22;14442;50.196;8.096;2024-02-04T05:17:00;21.70;40.50
15983;DHT22;14442;50.196;8.096;2024-02-04T05:19:27;21.70;40.60
15983;DHT22;14442;50.196;8.096;2024-02-04T05:21:54;21.70;40.60
15983;DHT22;14442;50.196;8.096;2024-02-04T05:24:20;21.60;40.60
15983;DHT22;14442;50.196;8.096;2024-02-04T05:26:47;21.60;40.60
15983;DHT22;14442;50.196;8.096;2024-02-04T05:29:14;21.60;40.60
15983;DHT22;14442;50.196;8.096;2024-02-04T05:31:43;21.60;40.60
15983;DHT22;14442;50.196;8.096;2024-02-04T05:34:10;21.60;40.50
15983;DHT22;14442;50.196;8.096;2024-02-04T05:36:36;21.60;40.60
15983;DHT22;14442;50.196;8.096;2024-02-04T05:39:10;21.60;40.50
15983;DHT22;14442;50.196;8.096;2024-02-04T05:41:37;21.60;40.60
15983;DHT22;14442;50.196;8.096;2024-02-04T05:44:04;21.60;40.60
15983;DHT22;14442;50.196;8.096;2024-02-04T05:46:31;21.60;40.60
15983;DHT22;14442;50.196;8.096;2024-02-04T05:48:59;21.60;40.50
15983;DHT22;14442;50.196;8.096;2024-02-04T05:51:25;21.60;40.60
15983;DHT22;14442;50.196;8.096;2024-02-04T05:53:52;21.60;40.70
15983;DHT22;14442;50.196;8.096;2024-02-04T05:56:19;21.60;40.70
15983;DHT22;14442;50.196;8.096;2024-02-04T05:58:46;21.60;40.70
15983;DHT22;14442;50.196;8.096;2024-02-04T06:01:15;21.50;40.60
15983;DHT22;14442;50.196;8.096;2024-02-04T06:03:42;21.60;40.70
15983;DHT22;14442;50.196;8.096;2024-02-04T06:06:14;21.60;40.60
15983;DHT22;14442;50.196;8.096;2024-02-04T06:08:41;21.60;40.70
15983;DHT22;14442;50.196;8.096;2024-02-04T06:11:09;21.50;40.60
15983;DHT22;14442;50.196;8.096;2024-02-04T06:13:36;21.50;40.60
15983;DHT22;14442;50.196;8.096;2024-02-04T06:16:04;21.50;40.60
15983;DHT22;14442;50.196;8.096;2024-02-04T06:18:31;21.50;40.60
15983;DHT22;14442;50.196;8.096;2024-02-04T06:20:57;21.50;40.60
15983;DHT22;14442;50.196;8.096;2024-02-04T06:23:25;21.50;40.70
15983;DHT22;14442;50.196;8.096;2024-02-04T06:25:52;21.50;40.70
15983;DHT22;14442;50.196;8.096;2024-02-04T06:28:19;21.50;40.60
15983;DHT22;14442;50.196;8.096;2024-02-04T06:30:45;21.50;40.70
15983;DHT22;14442;50.196;8.096;2024-02-04T06:33:12;21.50;40.60
15983;DHT22;14442;50.196;8.096;2024-02-04T06:35:39;21.50;40.60
15983;DHT22;14442;50.196;8.096;2024-02-04T06:38:05;21.50;40.70
15983;DHT22;14442;50.196;8.096;2024-02-04T06:40:34;21.50;40.60
15983;DHT22;14442;50.196;8.096;2024-02-04T06:43:00;21.50;40.70
15983;DHT22;14442;50.196;8.096;2024-02-04T06:45:27;21.50;40.60
15983;DHT22;14442;50.196;8.096;2024-02-04T06:47:54;21.50;40.60
15983;DHT22;14442;50.196;8.096;2024-02-04T06:50:21;21.50;40.60
15983;DHT22;14442;50.196;8.096;2024-02-04T06:52:48;21.50;40.60
15983;DHT22;14442;50.196;8.096;2024-02-04T06:55:14;21.50;40.70
15983;DHT22;14442;50.196;8.096;2024-02-04T06:57:42;21.50;40.70
15983;DHT22;14442;50.196;8.096;2024-02-04T07:00:10;21.50;40.60
15983;DHT22;14442;50.196;8.096;2024-02-04T07:02:37;21.50;40.70
15983;DHT22;14442;50.196;8.096;2024-02-04T07:05:05;21.50;40.60
15983;DHT22;14442;50.196;8.096;2024-02-04T07:07:31;21.50;40.60
15983;DHT22;14442;50.196;8.096;2024-02-04T07:09:59;21.50;40.70
15983;DHT22;14442;50.196;8.096;2024-02-04T07:12:25;21.50;40.80
15983;DHT22;14442;50.196;8.096;2024-02-04T07:14:54;21.50;40.70
15983;DHT22;14442;50.196;8.096;2024-02-04T07:17:21;21.50;40.60
15983;DHT22;14442;50.196;8.096;2024-02-04T07:19:47;21.50;40.70
15983;DHT22;14442;50.196;8.096;2024-02-04T07:22:14;21.40;40.60
15983;DHT22;14442;50.196;8.096;2024-02-04T07:24:41;21.50;40.60
15983;DHT22;14442;50.196;8.096;2024-02-04T07:27:08;21.40;40.60
15983;DHT22;14442;50.196;8.096;2024-02-04T07:29:34;21.40;40.70
15983;DHT22;14442;50.196;8.096;2024-02-04T07:32:03;21.40;40.80
15983;DHT22;14442;50.196;8.096;2024-02-04T07:34:30;21.40;40.90
15983;DHT22;14442;50.196;8.096;2024-02-04T07:36:56;21.40;40.90
15983;DHT22;14442;50.196;8.096;2024-02-04T07:39:23;21.40;40.90
15983;DHT22;14442;50.196;8.096;2024-02-04T07:41:50;21.50;41.30
15983;DHT22;14442;50.196;8.096;2024-02-04T07:44:19;21.50;41.40
15983;DHT22;14442;50.196;8.096;2024-02-04T07:46:46;21.50;41.30
15983;DHT22;14442;50.196;8.096;2024-02-04T07:49:14;21.60;41.10
15983;DHT22;14442;50.196;8.096;2024-02-04T07:51:40;21.60;41.00
15983;DHT22;14442;50.196;8.096;2024-02-04T07:54:07;21.70;40.80
15983;DHT22;14442;50.196;8.096;2024-02-04T07:56:34;21.70;40.70
15983;DHT22;14442;50.196;8.096;2024-02-04T07:59:01;21.70;40.70
15983;DHT22;14442;50.196;8.096;2024-02-04T08:01:29;21.80;40.70
15983;DHT22;14442;50.196;8.096;2024-02-04T08:03:55;21.80;40.70
15983;DHT22;14442;50.196;8.096;2024-02-04T08:06:24;21.80;40.70
15983;DHT22;14442;50.196;8.096;2024-02-04T08:08:51;21.90;40.70
15983;DHT22;14442;50.196;8.096;2024-02-04T08:11:18;21.90;40.60
15983;DHT22;14442;50.196;8.096;2024-02-04T08:13:45;21.90;40.60
15983;DHT22;14442;50.196;8.096;2024-02-04T08:16:12;21.90;40.50
15983;DHT22;14442;50.196;8.096;2024-02-04T08:18:39;22.00;40.50
15983;DHT22;14442;50.196;8.096;2024-02-04T08:21:06;22.00;40.40
15983;DHT22;14442;50.196;8.096;2024-02-04T08:23:34;22.00;40.50
15983;DHT22;14442;50.196;8.096;2024-02-04T08:26:01;22.10;40.50
15983;DHT22;14442;50.196;8.096;2024-02-04T08:28:27;22.10;40.40
15983;DHT22;14442;50.196;8.096;2024-02-04T08:30:55;22.10;40.30
15983;DHT22;14442;50.196;8.096;2024-02-04T08:33:21;22.20;40.40
15983;DHT22;14442;50.196;8.096;2024-02-04T08:35:48;22.20;40.30
15983;DHT22;14442;50.196;8.096;2024-02-04T08:38:15;22.30;40.40
15983;DHT22;14442;50.196;8.096;2024-02-04T08:40:43;22.30;40.40
15983;DHT22;14442;50.196;8.096;2024-02-04T08:43:10;22.30;40.30
15983;DHT22;14442;50.196;8.096;2024-02-04T08:45:37;22.30;40.30
15983;DHT22;14442;50.196;8.096;2024-02-04T08:48:04;22.30;40.20
15983;DHT22;14442;50.196;8.096;2024-02-04T08:50:30;22.30;40.20
15983;DHT22;14442;50.196;8.096;2024-02-04T08:52:58;22.30;40.30
15983;DHT22;14442;50.196;8.096;2024-02-04T08:55:25;22.30;40.40
15983;DHT22;14442;50.196;8.096;2024-02-04T08:57:53;22.30;40.50
15983;DHT22;14442;50.196;8.096;2024-02-04T09:00:20;22.30;40.50
15983;DHT22;14442;50.196;8.096;2024-02-04T09:02:47;22.30;40.50
15983;DHT22;14442;50.196;8.096;2024-02-04T09:05:13;22.40;40.70
15983;DHT22;14442;50.196;8.096;2024-02-04T09:07:41;22.40;40.60
15983;DHT22;14442;50.196;8.096;2024-02-04T09:10:08;22.40;40.50
15983;DHT22;14442;50.196;8.096;2024-02-04T09:12:35;22.40;40.60
15983;DHT22;14442;50.196;8.096;2024-02-04T09:15:04;22.40;40.50
15983;DHT22;14442;50.196;8.096;2024-02-04T09:17:31;22.40;40.50
15983;DHT22;14442;50.196;8.096;2024-02-04T09:19:58;22.40;40.40
15983;DHT22;14442;50.196;8.096;2024-02-04T09:22:25;22.40;40.40
15983;DHT22;14442;50.196;8.096;2024-02-04T09:24:52;22.40;40.40
15983;DHT22;14442;50.196;8.096;2024-02-04T09:27:19;22.40;40.40
15983;DHT22;14442;50.196;8.096;2024-02-04T09:29:45;22.50;40.40
15983;DHT22;14442;50.196;8.096;2024-02-04T09:32:13;22.50;40.40
15983;DHT22;14442;50.196;8.096;2024-02-04T09:34:40;22.50;40.40
15983;DHT22;14442;50.196;8.096;2024-02-04T09:37:07;22.50;40.40
15983;DHT22;14442;50.196;8.096;2024-02-04T09:39:33;22.50;40.40
15983;DHT22;14442;50.196;8.096;2024-02-04T09:42:00;22.50;40.40
15983;DHT22;14442;50.196;8.096;2024-02-04T09:44:27;22.60;40.40
15983;DHT22;14442;50.196;8.096;2024-02-04T09:46:54;22.60;40.40
15983;DHT22;14442;50.196;8.096;2024-02-04T09:49:25;22.50;40.20
15983;DHT22;14442;50.196;8.096;2024-02-04T09:51:53;22.60;40.40
15983;DHT22;14442;50.196;8.096;2024-02-04T09:54:21;22.60;40.40
15983;DHT22;14442;50.196;8.096;2024-02-04T09:56:49;22.60;40.40
15983;DHT22;14442;50.196;8.096;2024-02-04T09:59:17;22.60;40.40
15983;DHT22;14442;50.196;8.096;2024-02-04T10:01:44;22.50;40.30
15983;DHT22;14442;50.196;8.096;2024-02-04T10:04:11;22.60;40.50
15983;DHT22;14442;50.196;8.096;2024-02-04T10:06:39;22.50;40.50
15983;DHT22;14442;50.196;8.096;2024-02-04T10:09:06;22.60;40.60
15983;DHT22;14442;50.196;8.096;2024-02-04T10:11:33;22.50;40.60
15983;DHT22;14442;50.196;8.096;2024-02-04T10:14:00;22.50;40.70
15983;DHT22;14442;50.196;8.096;2024-02-04T10:16:27;22.60;40.70
15983;DHT22;14442;50.196;8.096;2024-02-04T10:18:54;22.60;40.70
15983;DHT22;14442;50.196;8.096;2024-02-04T10:21:23;22.70;40.60
15983;DHT22;14442;50.196;8.096;2024-02-04T10:23:52;22.70;40.40
15983;DHT22;14442;50.196;8.096;2024-02-04T10:26:19;22.70;40.60
15983;DHT22;14442;50.196;8.096;2024-02-04T10:28:46;22.90;40.80
15983;DHT22;14442;50.196;8.096;2024-02-04T10:31:13;22.90;41.20
15983;DHT22;14442;50.196;8.096;2024-02-04T10:33:40;22.90;41.30
15983;DHT22;14442;50.196;8.096;2024-02-04T10:36:07;23.00;41.50
15983;DHT22;14442;50.196;8.096;2024-02-04T10:38:34;23.00;41.30
15983;DHT22;14442;50.196;8.096;2024-02-04T10:41:02;23.00;41.30
15983;DHT22;14442;50.196;8.096;2024-02-04T10:43:31;22.90;41.30
15983;DHT22;14442;50.196;8.096;2024-02-04T10:46:01;22.90;41.40
15983;DHT22;14442;50.196;8.096;2024-02-04T10:48:35;22.90;41.50
15983;DHT22;14442;50.196;8.096;2024-02-04T10:51:11;22.90;42.00
15983;DHT22;14442;50.196;8.096;2024-02-04T10:53:41;23.00;42.00
15983;DHT22;14442;50.196;8.096;2024-02-04T10:56:13;23.00;42.00
15983;DHT22;14442;50.196;8.096;2024-02-04T10:58:40;23.00;41.90
15983;DHT22;14442;50.196;8.096;2024-02-04T11:01:08;23.00;42.00
15983;DHT22;14442;50.196;8.096;2024-02-04T11:03:36;23.00;41.90
15983;DHT22;14442;50.196;8.096;2024-02-04T11:06:03;23.00;42.00
15983;DHT22;14442;50.196;8.096;2024-02-04T11:08:30;23.00;42.00
15983;DHT22;14442;50.196;8.096;2024-02-04T11:10:57;23.00;41.90
15983;DHT22;14442;50.196;8.096;2024-02-04T11:13:27;23.10;42.00
15983;DHT22;14442;50.196;8.096;2024-02-04T11:15:56;23.10;41.90
15983;DHT22;14442;50.196;8.096;2024-02-04T11:18:47;23.10;41.80
15983;DHT22;14442;50.196;8.096;2024-02-04T11:21:44;23.10;41.70
15983;DHT22;14442;50.196;8.096;2024-02-04T11:24:27;23.20;41.50
15983;DHT22;14442;50.196;8.096;2024-02-04T11:26:56;23.20;41.40
15983;DHT22;14442;50.196;8.096;2024-02-04T11:29:25;23.20;41.40
15983;DHT22;14442;50.196;8.096;2024-02-04T11:31:52;23.20;41.40
15983;DHT22;14442;50.196;8.096;2024-02-04T11:34:19;23.20;41.60
15983;DHT22;14442;50.196;8.096;2024-02-04T11:36:46;23.10;41.50
15983;DHT22;14442;50.196;8.096;2024-02-04T11:39:12;23.10;41.50
15983;DHT22;14442;50.196;8.096;2024-02-04T11:41:50;23.20;41.90
15983;DHT22;14442;50.196;8.096;2024-02-04T11:44:20;23.20;41.90
15983;DHT22;14442;50.196;8.096;2024-02-04T11:46:50;23.30;42.00
15983;DHT22;14442;50.196;8.096;2024-02-04T11:49:17;23.30;42.00
15983;DHT22;14442;50.196;8.096;2024-02-04T11:51:46;23.40;41.90
15983;DHT22;14442;50.196;8.096;2024-02-04T11:54:14;23.40;42.00
15983;DHT22;14442;50.196;8.096;2024-02-04T11:56:41;23.40;42.10
15983;DHT22;14442;50.196;8.096;2024-02-04T11:59:08;23.40;42.10
15983;DHT22;14442;50.196;8.096;2024-02-04T12:01:36;23.40;42.10
15983;DHT22;14442;50.196;8.096;2024-02-04T12:04:11;23.50;42.00
15983;DHT22;14442;50.196;8.096;2024-02-04T12:06:40;23.50;41.90
15983;DHT22;14442;50.196;8.096;2024-02-04T12:09:08;23.50;42.20
15983;DHT22;14442;50.196;8.096;2024-02-04T12:11:35;23.60;42.30
15983;DHT22;14442;50.196;8.096;2024-02-04T12:14:03;23.60;42.50
15983;DHT22;14442;50.196;8.096;2024-02-04T12:16:31;23.60;42.30
15983;DHT22;14442;50.196;8.096;2024-02-04T12:18:57;23.60;42.10
15983;DHT22;14442;50.196;8.096;2024-02-04T12:21:26;23.60;42.00
15983;DHT22;14442;50.196;8.096;2024-02-04T12:23:54;23.60;42.00
15983;DHT22;14442;50.196;8.096;2024-02-04T12:26:21;23.70;42.10
15983;DHT22;14442;50.196;8.096;2024-02-04T12:28:48;23.70;42.10
15983;DHT22;14442;50.196;8.096;2024-02-04T12:31:18;23.70;42.10
15983;DHT22;14442;50.196;8.096;2024-02-04T12:33:52;23.70;42.20
15983;DHT22;14442;50.196;8.096;2024-02-04T12:36:20;23.70;42.10
15983;DHT22;14442;50.196;8.096;2024-02-04T12:38:52;23.80;42.10
15983;DHT22;14442;50.196;8.096;2024-02-04T12:41:20;23.70;42.10
15983;DHT22;14442;50.196;8.096;2024-02-04T12:43:50;23.80;42.10
15983;DHT22;14442;50.196;8.096;2024-02-04T12:46:17;23.80;41.90
15983;DHT22;14442;50.196;8.096;2024-02-04T12:48:44;24.10;42.50
15983;DHT22;14442;50.196;8.096;2024-02-04T12:51:11;24.10;43.00
15983;DHT22;14442;50.196;8.096;2024-02-04T12:53:38;24.20;43.70
15983;DHT22;14442;50.196;8.096;2024-02-04T12:56:06;24.20;43.90
15983;DHT22;14442;50.196;8.096;2024-02-04T12:58:42;24.20;44.00
15983;DHT22;14442;50.196;8.096;2024-02-04T13:01:09;24.20;44.10
15983;DHT22;14442;50.196;8.096;2024-02-04T13:03:35;24.20;44.10
15983;DHT22;14442;50.196;8.096;2024-02-04T13:06:02;24.20;44.20
15983;DHT22;14442;50.196;8.096;2024-02-04T13:08:29;24.10;44.20
15983;DHT22;14442;50.196;8.096;2024-02-04T13:10:57;24.20;44.10
15983;DHT22;14442;50.196;8.096;2024-02-04T13:13:25;24.20;44.20
15983;DHT22;14442;50.196;8.096;2024-02-04T13:15:54;24.10;44.20
15983;DHT22;14442;50.196;8.096;2024-02-04T13:18:21;24.10;44.20
15983;DHT22;14442;50.196;8.096;2024-02-04T13:20:48;24.10;43.70
15983;DHT22;14442;50.196;8.096;2024-02-04T13:23:15;23.90;43.30
15983;DHT22;14442;50.196;8.096;2024-02-04T13:25:41;23.80;42.90
15983;DHT22;14442;50.196;8.096;2024-02-04T13:28:09;23.70;42.70
15983;DHT22;14442;50.196;8.096;2024-02-04T13:30:37;23.70;42.70
15983;DHT22;14442;50.196;8.096;2024-02-04T13:33:04;23.80;42.90
15983;DHT22;14442;50.196;8.096;2024-02-04T13:35:31;23.90;42.90
15983;DHT22;14442;50.196;8.096;2024-02-04T13:37:58;23.90;42.90
15983;DHT22;14442;50.196;8.096;2024-02-04T13:40:25;23.90;43.00
15983;DHT22;14442;50.196;8.096;2024-02-04T13:42:52;23.90;43.00
15983;DHT22;14442;50.196;8.096;2024-02-04T13:45:18;23.90;43.10
15983;DHT22;14442;50.196;8.096;2024-02-04T13:47:48;23.90;43.00
15983;DHT22;14442;50.196;8.096;2024-02-04T13:50:14;23.90;42.90
15983;DHT22;14442;50.196;8.096;2024-02-04T13:52:41;23.90;42.80
15983;DHT22;14442;50.196;8.096;2024-02-04T13:55:08;23.90;42.80
15983;DHT22;14442;50.196;8.096;2024-02-04T13:57:35;23.90;42.60
15983;DHT22;14442;50.196;8.096;2024-02-04T14:00:03;23.90;42.80
15983;DHT22;14442;50.196;8.096;2024-02-04T14:02:31;23.90;42.80
15983;DHT22;14442;50.196;8.096;2024-02-04T14:04:59;23.90;42.70
15983;DHT22;14442;50.196;8.096;2024-02-04T14:07:26;23.90;42.50
15983;DHT22;14442;50.196;8.096;2024-02-04T14:09:53;23.90;42.50
15983;DHT22;14442;50.196;8.096;2024-02-04T14:12:20;23.90;42.50
15983;DHT22;14442;50.196;8.096;2024-02-04T14:14:47;23.90;42.20
15983;DHT22;14442;50.196;8.096;2024-02-04T14:17:13;23.90;42.10
15983;DHT22;14442;50.196;8.096;2024-02-04T14:19:40;23.90;42.10
15983;DHT22;14442;50.196;8.096;2024-02-04T14:22:08;23.90;42.00
15983;DHT22;14442;50.196;8.096;2024-02-04T14:24:35;23.90;42.00
15983;DHT22;14442;50.196;8.096;2024-02-04T14:27:02;24.00;42.00
15983;DHT22;14442;50.196;8.096;2024-02-04T14:29:28;24.00;41.80
15983;DHT22;14442;50.196;8.096;2024-02-04T14:31:55;24.00;41.80
15983;DHT22;14442;50.196;8.096;2024-02-04T14:34:23;24.00;41.80
15983;DHT22;14442;50.196;8.096;2024-02-04T14:36:50;24.10;41.80
15983;DHT22;14442;50.196;8.096;2024-02-04T14:39:18;24.10;41.80
15983;DHT22;14442;50.196;8.096;2024-02-04T14:41:45;24.10;41.80
15983;DHT22;14442;50.196;8.096;2024-02-04T14:44:12;24.10;41.70
15983;DHT22;14442;50.196;8.096;2024-02-04T14:46:38;24.20;41.60
15983;DHT22;14442;50.196;8.096;2024-02-04T14:49:05;24.20;41.60
15983;DHT22;14442;50.196;8.096;2024-02-04T14:51:32;24.20;41.60
15983;DHT22;14442;50.196;8.096;2024-02-04T14:54:00;24.20;41.50
15983;DHT22;14442;50.196;8.096;2024-02-04T14:56:28;24.20;42.20
15983;DHT22;14442;50.196;8.096;2024-02-04T14:58:55;24.20;41.40
15983;DHT22;14442;50.196;8.096;2024-02-04T15:01:22;24.30;41.50
15983;DHT22;14442;50.196;8.096;2024-02-04T15:03:48;24.30;41.50
15983;DHT22;14442;50.196;8.096;2024-02-04T15:06:15;24.30;41.30
15983;DHT22;14442;50.196;8.096;2024-02-04T15:08:42;24.30;41.50
15983;DHT22;14442;50.196;8.096;2024-02-04T15:11:09;24.30;41.30
15983;DHT22;14442;50.196;8.096;2024-02-04T15:13:38;24.40;41.40
15983;DHT22;14442;50.196;8.096;2024-02-04T15:16:05;24.40;41.30
15983;DHT22;14442;50.196;8.096;2024-02-04T15:18:33;24.40;41.30
15983;DHT22;14442;50.196;8.096;2024-02-04T15:21:01;24.40;41.20
15983;DHT22;14442;50.196;8.096;2024-02-04T15:23:28;24.50;41.30
15983;DHT22;14442;50.196;8.096;2024-02-04T15:25:56;24.50;41.20
15983;DHT22;14442;50.196;8.096;2024-02-04T15:28:24;24.50;41.20
15983;DHT22;14442;50.196;8.096;2024-02-04T15:30:53;24.50;41.20
15983;DHT22;14442;50.196;8.096;2024-02-04T15:33:21;24.50;41.10